Westby, North Dakota
Current Conditions -  °F | °C
As of 8:52 AM on Friday 31 Oct 2014 (Local Time) from KISN Reporting Station
Overcast Overcast  
Wind Chill: -6°   Ceiling: 1300
Heat Index: -1°   Visibility: 10mi
Dew Point: -4°   Wind: 12mph
Humidity: 82%   Direction: 160°SSE
Pressure: 30.28"   Gusts: NA
Location:  48.5901°N, 103.922°W
Report Text: KISN 311352Z AUTO 16010KT 10SM OVC013 M01/M04 A3028 RMK AO2 SLP280 T10111039
Loading
Personal Weather Stations






























Interactive Weather Map
Tropical Storm Tracking
New forecast layout! Learn more

10-Day Weather Forecast

Advertisements
Track Severe Weather on mobile